This demonstration page uses our WeatherBlox Daily Observations layout. Learn more.

38.80484, -77.04692

Hourly Observations for June 30, 2019

Temp ( °F °C ) Dew Point ( °F °C ) Humidity (%) Winds ( mph kmh ) Pressure ( in mb ) Visibility ( mi km ) Precip ( " mm )
12:52 am 00:52 Cloudy 76 24.4 65 18.3 69 69 NW 8 13 29.94 1014 10 16.09344 0.03 0.762
1:52 am 01:52 Cloudy with Light Rain 74 23.3 67 19.4 79 79 NW 9 15 29.91 1013 10 16.09344 0.001 0.001
2:52 am 02:52 Mostly Cloudy 75 23.9 65 18.3 71 71 WNW 9 15 29.91 1013 10 16.09344 0.001 0.001
3:52 am 03:52 Mostly Cloudy 77 25 64 17.8 64 64 NW 15 24 29.85 1011 10 16.09344 0 0
4:52 am 04:52 Mostly Cloudy 76 24.4 65 18.3 69 69 WNW 6 9 29.85 1011 10 16.09344 0 0
5:52 am 05:52 Partly Cloudy 73 22.8 65 18.3 76 76 N 5 7 29.88 1012 10 16.09344 0 0
6:52 am 06:52 Mostly Cloudy 74 23.3 66 18.9 76 76 N 8 13 29.88 1012 10 16.09344 0 0
7:52 am 07:52 Partly Cloudy 77 25 66 18.9 69 69 NW 6 9 29.88 1012 10 16.09344 0 0
8:52 am 08:52 Partly Cloudy 81 27.2 67 19.4 62 62 NW 16 26 29.88 1012 10 16.09344 0 0
9:52 am 09:52 Partly Cloudy 83 28.3 67 19.4 59 59 NW 20 31 29.88 1012 10 16.09344 0 0
10:52 am 10:52 Partly Cloudy 85 29.4 63 17.2 48 48 NNW 20 31 29.88 1012 10 16.09344 0 0
12:52 pm 12:52 Partly Cloudy 89 31.7 59 15 36 36 NNW 17 28 29.85 1011 10 16.09344 0 0
2:52 pm 14:52 Partly Cloudy 92 33.3 58 14.4 32 32 NNW 24 39 29.83 1010 10 16.09344 0 0
3:52 pm 15:52 Mostly Cloudy 91 32.8 56 13.3 31 31 NW 18 30 29.8 1009 10 16.09344 0 0
4:52 pm 16:52 Mostly Cloudy 91 32.8 55 12.8 30 30 NW 16 26 29.8 1009 10 16.09344 0 0
5:52 pm 17:52 Partly Cloudy 90 32.2 56 13.3 32 32 NW 18 30 29.8 1009 10 16.09344 0 0
6:52 pm 18:52 Partly Cloudy 89 31.7 56 13.3 33 33 NNW 15 24 29.8 1009 10 16.09344 0 0
7:52 pm 19:52 Partly Cloudy 87 30.6 56 13.3 35 35 NNW 14 22 29.83 1010 10 16.09344 0 0
8:52 pm 20:52 Partly Cloudy 85 29.4 55 12.8 36 36 NNW 14 22 29.83 1010 10 16.09344 0 0
9:52 pm 21:52 Partly Cloudy 83 28.3 56 13.3 40 40 NNW 7 11 29.85 1011 10 16.09344 0 0
10:52 pm 22:52 Partly Cloudy 81 27.2 56 13.3 42 42 NNW 12 19 29.88 1012 10 16.09344 0 0
11:52 pm 23:52 Partly Cloudy 79 26.1 57 13.9 47 47 N 10 17 29.88 1012 10 16.09344 0 0

Powered by AerisWeather